Time;durP1;ratioP1;P1;durP2;ratioP2;P2;SDS_P1;SDS_P2;PMS_P1;PMS_P2;Temp;Humidity;BMP_temperature;BMP_pressure;BME280_temperature;BME280_humidity;BME280_pressure;Samples;Min_cycle;Max_cycle;Signal;HPM_P1;HPM_P2
2023/04/16 00:02:23;;;;;;;8.38;2.15;;;;;;;7.64;100.00;102240.22;5225775;28;20079;-74
2023/04/16 00:04:53;;;;;;;10.30;2.58;;;;;;;7.66;100.00;102250.78;5225955;28;20029;-74
2023/04/16 00:07:24;;;;;;;11.50;2.42;;;;;;;7.65;100.00;102238.41;5225477;28;20028;-73
2023/04/16 00:09:54;;;;;;;6.80;2.10;;;;;;;7.62;100.00;102239.47;5207992;28;20435;-74
2023/04/16 00:12:25;;;;;;;10.77;2.40;;;;;;;7.64;100.00;102247.41;5225760;28;20481;-73
2023/04/16 00:14:55;;;;;;;7.57;2.22;;;;;;;7.63;100.00;102241.19;5225851;28;20036;-74
2023/04/16 00:17:26;;;;;;;11.52;2.05;;;;;;;7.68;100.00;102247.06;5209624;28;20412;-74
2023/04/16 00:19:56;;;;;;;10.38;2.17;;;;;;;7.70;100.00;102234.44;5233007;28;20025;-74
2023/04/16 00:22:27;;;;;;;9.02;1.60;;;;;;;7.70;100.00;102233.59;5225291;28;20016;-73
2023/04/16 00:24:57;;;;;;;10.82;1.83;;;;;;;7.70;100.00;102239.78;5225645;28;20024;-73
2023/04/16 00:27:28;;;;;;;10.77;2.30;;;;;;;7.74;100.00;102227.06;5224743;28;20048;-73
2023/04/16 00:29:58;;;;;;;11.13;2.08;;;;;;;7.74;100.00;102227.91;5225325;28;20110;-74
2023/04/16 00:32:29;;;;;;;6.88;1.80;;;;;;;7.73;100.00;102231.53;5225365;28;20533;-73
2023/04/16 00:35:00;;;;;;;8.30;1.92;;;;;;;7.75;100.00;102226.94;5207534;28;20029;-74
2023/04/16 00:37:30;;;;;;;5.82;1.40;;;;;;;7.76;100.00;102228.63;5225366;28;20466;-74
2023/04/16 00:40:01;;;;;;;9.05;1.50;;;;;;;7.77;100.00;102221.47;5224382;28;20405;-74
2023/04/16 00:42:31;;;;;;;8.27;1.40;;;;;;;7.79;100.00;102225.72;5220642;28;20396;-74
2023/04/16 00:45:04;;;;;;;6.72;1.50;;;;;;;7.79;100.00;102227.56;5225037;28;20109;-74
2023/04/16 00:47:34;;;;;;;4.97;1.50;;;;;;;7.77;100.00;102224.97;5224956;28;20108;-74
2023/04/16 00:50:05;;;;;;;7.80;1.30;;;;;;;7.77;100.00;102224.13;5224618;28;20031;-74
2023/04/16 00:52:37;;;;;;;9.60;3.22;;;;;;;7.79;100.00;102230.22;5224507;28;20060;-74
2023/04/16 00:55:12;;;;;;;6.03;1.65;;;;;;;7.79;100.00;102231.06;5224998;28;20474;-74
2023/04/16 00:57:42;;;;;;;7.28;1.80;;;;;;;7.79;100.00;102236.41;5224640;28;20021;-74
2023/04/16 01:00:13;;;;;;;8.95;2.42;;;;;;;7.80;100.00;102237.28;5224677;28;20013;-74
2023/04/16 01:02:43;;;;;;;7.97;2.47;;;;;;;7.78;100.00;102232.06;5225103;28;20021;-74
2023/04/16 01:05:14;;;;;;;11.77;2.47;;;;;;;7.83;100.00;102233.50;5224651;28;20033;-74
2023/04/16 01:07:44;;;;;;;6.38;2.33;;;;;;;7.81;100.00;102233.63;5206691;28;20064;-73
2023/04/16 01:10:15;;;;;;;10.38;2.97;;;;;;;7.77;100.00;102235.66;5224646;28;20033;-74
2023/04/16 01:12:45;;;;;;;6.50;3.05;;;;;;;7.66;100.00;102240.09;5224453;28;20029;-74
2023/04/16 01:15:16;;;;;;;11.63;3.47;;;;;;;7.62;100.00;102239.47;5206956;28;20028;-74
2023/04/16 01:17:47;;;;;;;11.55;3.05;;;;;;;7.44;100.00;102239.03;5223807;28;20098;-74
2023/04/16 01:20:17;;;;;;;10.27;3.78;;;;;;;7.23;100.00;102248.59;5206627;28;20025;-75
2023/04/16 01:22:48;;;;;;;24.80;5.00;;;;;;;7.12;100.00;102248.50;5224818;28;20031;-75
2023/04/16 01:25:28;;;;;;;14.60;4.20;;;;;;;6.99;100.00;102246.72;5224606;28;20028;-75
2023/04/16 01:28:08;;;;;;;14.02;4.78;;;;;;;6.96;100.00;102246.06;5207621;28;20776;-75
2023/04/16 01:30:38;;;;;;;12.48;4.65;;;;;;;6.97;100.00;102253.09;5224205;28;20027;-75
2023/04/16 01:33:11;;;;;;;14.75;5.35;;;;;;;6.97;100.00;102253.09;5224389;28;20021;-75
2023/04/16 01:35:42;;;;;;;13.10;6.30;;;;;;;7.00;100.00;102255.56;5223844;28;20531;-75
2023/04/16 01:38:12;;;;;;;14.50;4.25;;;;;;;6.96;100.00;102257.59;5223643;28;20025;-76
2023/04/16 01:40:43;;;;;;;10.20;4.40;;;;;;;6.92;100.00;102258.75;5223531;28;20616;-76
2023/04/16 01:43:13;;;;;;;14.80;4.95;;;;;;;6.86;100.00;102263.69;5206465;28;20033;-76
2023/04/16 01:45:43;;;;;;;11.20;5.03;;;;;;;6.90;100.00;102262.50;5206372;28;20035;-76
2023/04/16 01:48:15;;;;;;;15.80;5.03;;;;;;;6.90;100.00;102258.03;5223698;28;20060;-76
2023/04/16 01:50:45;;;;;;;8.63;4.88;;;;;;;6.86;100.00;102269.88;5205864;28;20048;-76
2023/04/16 01:53:16;;;;;;;11.35;5.00;;;;;;;6.93;100.00;102264.97;5206348;28;20035;-75
2023/04/16 01:55:46;;;;;;;14.57;5.22;;;;;;;6.89;100.00;102267.00;5224277;28;20112;-76
2023/04/16 01:58:17;;;;;;;12.57;5.90;;;;;;;6.88;100.00;102262.63;5206154;28;20078;-76
2023/04/16 02:00:48;;;;;;;12.88;5.60;;;;;;;6.90;100.00;102262.50;5223831;28;20045;-76
2023/04/16 02:03:18;;;;;;;15.88;5.53;;;;;;;6.95;100.00;102265.72;5223803;28;20501;-75
2023/04/16 02:05:50;;;;;;;12.02;4.75;;;;;;;6.96;100.00;102265.59;5205964;28;20032;-75
2023/04/16 02:08:21;;;;;;;23.20;6.25;;;;;;;6.95;100.00;102269.22;5223657;28;20025;-75
2023/04/16 02:10:52;;;;;;;15.13;5.43;;;;;;;6.97;100.00;102271.78;5223447;28;20021;-75
2023/04/16 02:13:24;;;;;;;12.70;5.70;;;;;;;6.95;100.00;102265.72;5224019;28;20059;-76
2023/04/16 02:15:55;;;;;;;12.43;5.00;;;;;;;6.92;100.00;102272.09;5206162;28;20017;-75
2023/04/16 02:18:26;;;;;;;13.07;5.93;;;;;;;6.96;100.00;102276.25;5224301;28;20086;-75
2023/04/16 02:20:58;;;;;;;13.80;6.18;;;;;;;6.95;100.00;102266.56;5223752;28;20148;-75
2023/04/16 02:23:29;;;;;;;11.25;4.88;;;;;;;6.93;100.00;102264.97;5223965;28;20100;-76
2023/04/16 02:26:02;;;;;;;9.85;5.05;;;;;;;6.90;100.00;102267.84;5223687;28;20116;-75
2023/04/16 02:28:32;;;;;;;13.65;5.43;;;;;;;6.93;100.00;102263.16;5223031;28;20036;-75
2023/04/16 02:31:03;;;;;;;13.40;5.35;;;;;;;6.93;100.00;102263.16;5223462;28;20056;-75
2023/04/16 02:33:34;;;;;;;12.18;4.78;;;;;;;6.93;100.00;102262.31;5223747;28;20020;-75
2023/04/16 02:36:05;;;;;;;13.68;4.78;;;;;;;6.91;100.00;102269.53;5223501;28;20025;-75
2023/04/16 02:38:36;;;;;;;14.43;4.90;;;;;;;6.91;100.00;102266.88;5223324;28;20035;-76
2023/04/16 02:41:07;;;;;;;7.43;5.03;;;;;;;6.91;100.00;102273.06;5222599;28;20104;-76
2023/04/16 02:43:37;;;;;;;11.50;4.70;;;;;;;6.95;100.00;102271.88;5219452;28;20663;-76
2023/04/16 02:46:07;;;;;;;16.08;4.68;;;;;;;6.93;100.00;102265.81;5225409;28;20120;-76
2023/04/16 02:48:38;;;;;;;14.57;4.63;;;;;;;6.91;100.00;102274.88;5227486;28;20104;-77
2023/04/16 02:51:08;;;;;;;10.50;4.95;;;;;;;6.88;100.00;102273.31;5226848;28;20108;-76
2023/04/16 02:53:39;;;;;;;9.48;4.95;;;;;;;6.90;100.00;102270.50;5227407;28;20025;-76
2023/04/16 02:56:09;;;;;;;10.85;5.50;;;;;;;6.86;100.00;102274.34;5227204;28;20024;-76
2023/04/16 02:58:40;;;;;;;13.00;5.18;;;;;;;6.88;100.00;102278.63;5226936;28;20108;-76
2023/04/16 03:01:10;;;;;;;12.75;4.93;;;;;;;6.86;100.00;102271.69;5209374;28;20069;-76
2023/04/16 03:03:41;;;;;;;17.50;5.75;;;;;;;6.83;100.00;102272.75;5227458;28;20075;-76
2023/04/16 03:06:11;;;;;;;13.10;5.55;;;;;;;6.81;100.00;102272.00;5227537;28;20033;-75
2023/04/16 03:08:42;;;;;;;15.13;5.05;;;;;;;6.84;100.00;102268.28;5226998;28;20049;-76
2023/04/16 03:11:12;;;;;;;16.80;5.28;;;;;;;6.83;100.00;102283.44;5227023;28;20021;-76
2023/04/16 03:13:43;;;;;;;18.08;5.65;;;;;;;6.82;100.00;102284.38;5227032;28;20036;-76
2023/04/16 03:16:14;;;;;;;12.85;5.85;;;;;;;6.84;100.00;102284.28;5209070;28;20032;-75
2023/04/16 03:18:44;;;;;;;16.30;5.70;;;;;;;6.87;100.00;102286.72;5226497;28;20435;-76
2023/04/16 03:21:15;;;;;;;16.65;6.18;;;;;;;6.87;100.00;102286.72;5226970;28;20028;-76
2023/04/16 03:23:46;;;;;;;16.48;6.43;;;;;;;6.87;100.00;102286.72;5208981;28;20094;-76
2023/04/16 03:26:17;;;;;;;13.32;6.10;;;;;;;6.85;100.00;102292.19;5226598;28;20029;-76
2023/04/16 03:28:47;;;;;;;17.40;6.22;;;;;;;6.86;100.00;102288.53;5226575;28;20025;-76
2023/04/16 03:31:18;;;;;;;20.15;6.22;;;;;;;6.89;100.00;102287.50;5209108;28;20095;-76
2023/04/16 03:33:48;;;;;;;15.80;6.05;;;;;;;6.89;100.00;102283.00;5226676;28;20052;-76
2023/04/16 03:36:22;;;;;;;20.95;8.55;;;;;;;6.90;100.00;102283.84;5226765;28;20074;-76
2023/04/16 03:38:52;;;;;;;18.25;6.47;;;;;;;6.90;100.00;102295.38;5226333;28;20547;-76
2023/04/16 03:41:23;;;;;;;20.70;6.85;;;;;;;6.93;100.00;102283.66;5208204;28;20029;-76
2023/04/16 03:43:53;;;;;;;12.25;5.68;;;;;;;6.91;100.00;102289.06;5226459;28;20044;-76
2023/04/16 03:46:24;;;;;;;17.08;6.78;;;;;;;6.93;100.00;102284.50;5226408;28;20029;-75
2023/04/16 03:48:54;;;;;;;14.75;6.72;;;;;;;6.92;100.00;102287.25;5226563;28;20106;-76
2023/04/16 03:51:25;;;;;;;19.52;7.80;;;;;;;6.95;100.00;102287.91;5208481;28;20029;-76
2023/04/16 03:53:55;;;;;;;18.35;7.38;;;;;;;6.94;100.00;102282.69;5225871;28;20106;-76
2023/04/16 03:56:26;;;;;;;20.33;7.93;;;;;;;7.01;100.00;102289.28;5226143;28;20036;-75
2023/04/16 03:58:56;;;;;;;17.90;7.18;;;;;;;7.01;100.00;102292.81;5225275;28;20022;-76
2023/04/16 04:01:27;;;;;;;19.17;7.90;;;;;;;6.99;100.00;102291.22;5226233;28;20044;-76
2023/04/16 04:03:57;;;;;;;22.52;8.02;;;;;;;6.98;100.00;102285.03;5225977;28;20024;-76
2023/04/16 04:06:28;;;;;;;29.65;8.82;;;;;;;6.97;100.00;102288.63;5207852;28;20035;-76
2023/04/16 04:08:58;;;;;;;18.92;8.75;;;;;;;7.02;100.00;102288.31;5225682;28;20062;-76
2023/04/16 04:11:29;;;;;;;23.63;9.85;;;;;;;7.02;100.00;102290.97;5225878;28;20112;-76
2023/04/16 04:13:59;;;;;;;29.38;10.45;;;;;;;7.08;100.00;102284.34;5207888;28;20028;-77
2023/04/16 04:16:31;;;;;;;27.10;8.98;;;;;;;7.07;100.00;102285.31;5208083;28;20049;-76
2023/04/16 04:19:01;;;;;;;22.33;9.13;;;;;;;7.04;100.00;102289.06;5225238;28;20028;-77
2023/04/16 04:21:32;;;;;;;26.75;9.50;;;;;;;7.04;100.00;102291.75;5207899;28;20017;-76
2023/04/16 04:24:02;;;;;;;22.85;9.38;;;;;;;7.04;100.00;102294.41;5225599;28;20099;-76
2023/04/16 04:26:32;;;;;;;23.70;9.10;;;;;;;7.08;100.00;102295.03;5225404;28;20028;-76
2023/04/16 04:29:03;;;;;;;28.65;10.15;;;;;;;7.09;100.00;102297.63;5225480;28;20112;-76
2023/04/16 04:31:33;;;;;;;20.25;9.60;;;;;;;7.07;100.00;102293.31;5225199;28;20025;-76
2023/04/16 04:34:04;;;;;;;24.00;10.75;;;;;;;7.09;100.00;102299.44;5207864;28;20416;-76
2023/04/16 04:36:34;;;;;;;23.10;9.48;;;;;;;7.12;100.00;102299.19;5226991;28;20028;-77
2023/04/16 04:39:05;;;;;;;19.90;8.52;;;;;;;7.10;100.00;102301.13;5208878;28;20113;-77
2023/04/16 04:41:35;;;;;;;28.73;10.30;;;;;;;7.04;100.00;102299.75;5206907;28;20055;-76
2023/04/16 04:44:06;;;;;;;22.73;11.18;;;;;;;7.08;100.00;102306.59;5225035;28;20029;-76
2023/04/16 04:46:36;;;;;;;22.92;8.90;;;;;;;7.03;100.00;102305.19;5224580;28;20160;-76
2023/04/16 04:49:07;;;;;;;18.08;8.35;;;;;;;7.02;100.00;102309.66;5225295;28;20052;-76
2023/04/16 04:51:37;;;;;;;21.88;10.40;;;;;;;7.04;100.00;102309.56;5224596;28;20561;-77
2023/04/16 04:54:08;;;;;;;20.40;8.68;;;;;;;7.06;100.00;102307.63;5224778;28;20470;-77
2023/04/16 04:56:38;;;;;;;28.17;10.23;;;;;;;7.08;100.00;102313.72;5206890;28;20393;-77
2023/04/16 04:59:09;;;;;;;29.00;10.13;;;;;;;7.08;100.00;102319.03;5224968;28;20120;-76
2023/04/16 05:01:40;;;;;;;23.80;10.85;;;;;;;7.10;100.00;102319.81;5207203;28;20477;-76
2023/04/16 05:04:10;;;;;;;28.73;11.40;;;;;;;7.11;100.00;102324.19;5225334;28;20024;-77
2023/04/16 05:06:41;;;;;;;29.13;10.60;;;;;;;7.14;100.00;102318.63;5224729;28;20025;-77
2023/04/16 05:09:12;;;;;;;28.83;10.35;;;;;;;7.14;100.00;102310.63;5207620;28;20024;-76
2023/04/16 05:11:42;;;;;;;31.58;10.57;;;;;;;7.10;100.00;102322.47;5224601;28;20021;-77
2023/04/16 05:14:13;;;;;;;23.92;10.45;;;;;;;7.12;100.00;102320.53;5191154;28;20029;-76
2023/04/16 05:16:43;;;;;;;15.20;9.20;;;;;;;7.11;100.00;102326.84;5224757;28;20055;-77
2023/04/16 05:19:15;;;;;;;22.42;10.10;;;;;;;7.10;100.00;102327.81;5225008;28;20040;-76
2023/04/16 05:21:46;;;;;;;20.88;10.45;;;;;;;7.12;100.00;102324.06;5224882;28;20351;-76
2023/04/16 05:24:16;;;;;;;33.00;10.48;;;;;;;7.10;100.00;102338.50;5207697;28;20033;-76
2023/04/16 05:26:47;;;;;;;22.83;9.88;;;;;;;7.09;100.00;102331.47;5224268;28;20025;-77
2023/04/16 05:29:17;;;;;;;26.15;9.95;;;;;;;7.08;100.00;102327.06;5226426;28;20025;-77
2023/04/16 05:31:48;;;;;;;20.23;9.52;;;;;;;7.12;100.00;102332.06;5207664;28;20055;-76
2023/04/16 05:34:19;;;;;;;24.60;10.23;;;;;;;7.12;100.00;102337.41;5224841;28;20021;-77
2023/04/16 05:36:49;;;;;;;17.83;8.98;;;;;;;7.12;100.00;102331.22;5224429;28;20503;-76
2023/04/16 05:39:20;;;;;;;22.15;9.70;;;;;;;7.10;100.00;102338.50;5212795;28;20021;-76
2023/04/16 05:41:51;;;;;;;19.55;9.43;;;;;;;7.09;100.00;102336.78;5212889;28;20079;-76
2023/04/16 05:44:22;;;;;;;32.90;9.32;;;;;;;7.10;100.00;102341.16;5205430;28;20043;-76
2023/04/16 05:46:53;;;;;;;17.83;9.20;;;;;;;7.07;100.00;102347.56;5223150;28;20417;-77
2023/04/16 05:49:24;;;;;;;18.98;8.60;;;;;;;7.13;100.00;102347.16;5222578;28;20063;-76
2023/04/16 05:51:54;;;;;;;21.63;8.90;;;;;;;7.09;100.00;102340.31;5222598;28;20029;-76
2023/04/16 05:54:24;;;;;;;18.35;9.35;;;;;;;7.12;100.00;102342.75;5222804;28;20424;-76
2023/04/16 05:56:55;;;;;;;20.42;8.93;;;;;;;7.14;100.00;102348.00;5222245;28;20508;-76
2023/04/16 05:59:26;;;;;;;14.55;9.20;;;;;;;7.12;100.00;102344.56;5222296;28;20028;-76
2023/04/16 06:01:56;;;;;;;21.20;9.98;;;;;;;7.11;100.00;102349.06;5222754;28;20470;-75
2023/04/16 06:04:27;;;;;;;19.88;9.43;;;;;;;7.15;100.00;102352.38;5222882;28;20021;-76
2023/04/16 06:06:57;;;;;;;20.77;10.07;;;;;;;7.10;100.00;102349.16;5222360;28;20185;-76
2023/04/16 06:09:29;;;;;;;23.05;9.68;;;;;;;7.09;100.00;102353.66;5221884;28;20024;-76
2023/04/16 06:12:00;;;;;;;17.85;9.15;;;;;;;7.08;100.00;102353.75;5222603;28;20029;-75
2023/04/16 06:14:30;;;;;;;19.70;10.52;;;;;;;7.12;100.00;102358.75;5223134;28;20074;-76
2023/04/16 06:17:01;;;;;;;20.98;10.43;;;;;;;7.14;100.00;102356.84;5222646;28;20029;-76
2023/04/16 06:19:31;;;;;;;35.17;11.10;;;;;;;7.13;100.00;102355.16;5222471;28;20032;-76
2023/04/16 06:22:03;;;;;;;20.42;10.18;;;;;;;7.16;100.00;102362.94;5226355;28;20021;-76
2023/04/16 06:24:34;;;;;;;22.15;10.73;;;;;;;7.19;100.00;102362.72;5226770;28;20047;-76
2023/04/16 06:27:04;;;;;;;27.30;10.85;;;;;;;7.19;100.00;102360.06;5226035;28;20060;-76
2023/04/16 06:29:34;;;;;;;24.25;11.07;;;;;;;7.17;100.00;102363.78;5209086;28;20046;-76
2023/04/16 06:32:05;;;;;;;27.08;11.20;;;;;;;7.22;100.00;102366.97;5208550;28;20017;-76
2023/04/16 06:34:37;;;;;;;34.38;11.60;;;;;;;7.23;100.00;102374.06;5226997;28;20021;-76
2023/04/16 06:37:08;;;;;;;26.90;11.80;;;;;;;7.18;100.00;102374.38;5213054;28;20025;-76
2023/04/16 06:39:38;;;;;;;24.52;11.48;;;;;;;7.17;100.00;102377.97;5208239;28;20036;-76
2023/04/16 06:42:09;;;;;;;27.10;12.57;;;;;;;7.21;100.00;102379.47;5221971;28;20063;-77
2023/04/16 06:44:39;;;;;;;24.42;11.82;;;;;;;7.24;100.00;102381.09;5208423;28;20060;-76
2023/04/16 06:47:10;;;;;;;29.67;11.48;;;;;;;7.25;100.00;102378.31;5226102;28;20032;-76
2023/04/16 06:49:40;;;;;;;26.25;11.52;;;;;;;7.26;100.00;102376.50;5225800;28;20108;-76
2023/04/16 06:52:11;;;;;;;25.67;10.88;;;;;;;7.30;100.00;102383.31;5226117;28;20021;-76
2023/04/16 06:54:42;;;;;;;29.27;12.00;;;;;;;7.33;100.00;102388.47;5226802;28;20043;-76
2023/04/16 06:57:12;;;;;;;28.00;11.75;;;;;;;7.34;100.00;102387.50;5225817;28;20033;-76
2023/04/16 06:59:43;;;;;;;21.55;11.27;;;;;;;7.38;100.00;102389.00;5225635;28;20051;-76
2023/04/16 07:02:13;;;;;;;24.83;11.27;;;;;;;7.40;100.00;102394.22;5225709;28;20025;-77
2023/04/16 07:04:44;;;;;;;25.25;11.45;;;;;;;7.43;100.00;102397.53;5226266;28;20075;-76
2023/04/16 07:07:14;;;;;;;25.15;10.43;;;;;;;7.45;100.00;102397.41;5207837;28;20033;-76
2023/04/16 07:09:44;;;;;;;23.65;11.00;;;;;;;7.44;100.00;102399.22;5207270;28;20021;-76
2023/04/16 07:12:15;;;;;;;26.88;11.02;;;;;;;7.49;100.00;102394.44;5225625;28;20219;-77
2023/04/16 07:14:46;;;;;;;24.50;11.38;;;;;;;7.49;100.00;102404.25;5225986;28;20025;-76
2023/04/16 07:17:16;;;;;;;23.05;10.88;;;;;;;7.50;100.00;102395.28;5225253;28;20035;-76
2023/04/16 07:19:47;;;;;;;20.02;10.07;;;;;;;7.52;100.00;102402.19;5225326;28;20066;-77
2023/04/16 07:22:17;;;;;;;27.08;12.60;;;;;;;7.59;100.00;102401.78;5225095;28;20040;-76
2023/04/16 07:24:48;;;;;;;27.60;11.57;;;;;;;7.57;100.00;102398.34;5225758;28;20029;-77
2023/04/16 07:27:18;;;;;;;23.15;11.75;;;;;;;7.59;100.00;102407.13;5207560;28;20127;-77
2023/04/16 07:29:49;;;;;;;34.78;12.13;;;;;;;7.58;100.00;102403.59;5224913;28;20021;-76
2023/04/16 07:32:21;;;;;;;26.95;11.27;;;;;;;7.64;100.00;102403.16;5224077;28;20029;-76
2023/04/16 07:34:51;;;;;;;29.83;12.00;;;;;;;7.69;100.00;102410.84;5207275;28;20025;-77
2023/04/16 07:37:22;;;;;;;30.42;13.05;;;;;;;7.71;100.00;102400.91;5225050;28;20078;-76
2023/04/16 07:39:53;;;;;;;24.25;11.25;;;;;;;7.71;100.00;102406.25;5224940;28;20027;-76
2023/04/16 07:42:24;;;;;;;23.90;11.40;;;;;;;7.75;100.00;102410.41;5220639;28;20021;-76
2023/04/16 07:44:55;;;;;;;26.90;11.20;;;;;;;7.76;100.00;102412.09;5207361;28;20032;-76
2023/04/16 07:47:26;;;;;;;38.85;14.55;;;;;;;7.78;100.00;102420.84;5225009;28;20033;-76
2023/04/16 07:49:56;;;;;;;23.92;11.07;;;;;;;7.82;100.00;102421.50;5206951;28;20016;-77
2023/04/16 07:52:26;;;;;;;22.92;10.55;;;;;;;7.78;100.00;102421.75;5225172;28;20036;-76
2023/04/16 07:54:57;;;;;;;23.80;11.75;;;;;;;7.81;100.00;102426.00;5190806;28;20021;-76
2023/04/16 07:57:27;;;;;;;25.98;12.93;;;;;;;7.80;100.00;102426.97;5224212;28;20021;-76
2023/04/16 07:59:59;;;;;;;25.83;11.25;;;;;;;7.84;100.00;102428.47;5224286;28;20397;-76
2023/04/16 08:02:30;;;;;;;22.83;11.40;;;;;;;7.84;100.00;102431.13;5224950;28;20025;-76
2023/04/16 08:05:01;;;;;;;26.30;11.93;;;;;;;7.86;100.00;102431.84;5225185;28;20033;-76
2023/04/16 08:07:31;;;;;;;28.85;12.98;;;;;;;7.86;100.00;102428.34;5224803;28;20073;-76
2023/04/16 08:10:02;;;;;;;25.80;12.20;;;;;;;7.88;100.00;102431.75;5206107;28;20552;-76
2023/04/16 08:12:34;;;;;;;33.20;13.13;;;;;;;7.89;100.00;102434.31;5206867;28;20060;-76
2023/04/16 08:15:06;;;;;;;34.47;14.27;;;;;;;7.88;100.00;102442.44;5224569;28;20631;-76
2023/04/16 08:17:37;;;;;;;32.35;12.88;;;;;;;7.84;100.00;102436.47;5224041;28;20025;-76
2023/04/16 08:20:08;;;;;;;30.83;12.55;;;;;;;7.80;100.00;102451.00;5206223;28;20028;-76
2023/04/16 08:22:38;;;;;;;33.28;12.13;;;;;;;7.76;100.00;102447.69;5206367;28;20436;-76
2023/04/16 08:25:09;;;;;;;27.00;11.43;;;;;;;7.76;100.00;102455.72;5224020;28;20051;-77
2023/04/16 08:27:40;;;;;;;29.58;12.93;;;;;;;7.74;100.00;102456.78;5206519;28;20036;-76
2023/04/16 08:30:11;;;;;;;35.17;10.88;;;;;;;7.70;100.00;102450.81;5223553;28;20024;-77
2023/04/16 08:32:42;;;;;;;32.65;12.10;;;;;;;7.71;100.00;102459.66;5224698;28;20020;-76
2023/04/16 08:35:12;;;;;;;27.70;12.48;;;;;;;7.69;100.00;102453.59;5223790;28;20036;-76
2023/04/16 08:37:43;;;;;;;28.70;12.15;;;;;;;7.74;100.00;102454.13;5224274;28;20017;-76
2023/04/16 08:40:13;;;;;;;28.90;12.15;;;;;;;7.79;100.00;102460.00;5224863;28;20037;-76
2023/04/16 08:42:47;;;;;;;29.13;12.57;;;;;;;7.81;100.00;102460.72;5225401;28;20029;-76
2023/04/16 08:45:18;;;;;;;32.30;12.27;;;;;;;7.81;100.00;102459.88;5224368;28;20021;-76
2023/04/16 08:47:50;;;;;;;30.13;12.77;;;;;;;7.86;100.00;102463.94;5223831;28;20764;-76
2023/04/16 08:50:23;;;;;;;30.85;14.57;;;;;;;7.86;100.00;102471.94;5224084;28;20082;-76
2023/04/16 08:53:17;;;;;;;32.30;13.32;;;;;;;7.91;100.00;102469.78;5207896;28;20021;-76
2023/04/16 08:55:49;;;;;;;36.00;12.30;;;;;;;7.94;100.00;102471.41;5224548;28;20021;-76
2023/04/16 08:58:21;;;;;;;26.10;12.90;;;;;;;7.95;100.00;102471.28;5205836;28;20087;-76
2023/04/16 09:00:53;;;;;;;29.65;12.40;;;;;;;7.99;100.00;102475.47;5223498;28;20584;-76
2023/04/16 09:03:24;;;;;;;41.97;13.05;;;;;;;8.02;100.00;102482.38;5224055;28;20325;-76
2023/04/16 09:05:57;;;;;;;27.58;13.27;;;;;;;8.09;100.00;102477.47;5223468;28;20116;-76
2023/04/16 09:08:28;;;;;;;29.77;12.98;;;;;;;8.10;100.00;102485.38;5223161;28;20031;-76
2023/04/16 09:10:59;;;;;;;31.85;13.48;;;;;;;8.05;100.00;102479.50;5205577;28;20033;-76
2023/04/16 09:13:30;;;;;;;37.63;14.63;;;;;;;8.09;100.00;102478.34;5205698;28;20102;-76
2023/04/16 09:16:02;;;;;;;32.22;13.98;;;;;;;8.12;100.00;102478.09;5223607;28;20166;-76
2023/04/16 09:18:33;;;;;;;34.03;13.18;;;;;;;8.12;100.00;102485.25;5222543;28;20032;-76
2023/04/16 09:21:04;;;;;;;30.65;13.63;;;;;;;8.14;100.00;102480.69;5223014;28;20024;-76
2023/04/16 09:23:36;;;;;;;31.83;14.25;;;;;;;8.16;100.00;102479.59;5223237;28;20029;-76
2023/04/16 09:26:06;;;;;;;28.48;13.13;;;;;;;8.17;100.00;102486.63;5205516;28;20017;-76
2023/04/16 09:28:40;;;;;;;30.95;14.18;;;;;;;8.18;100.00;102490.16;5222310;28;20070;-76
2023/04/16 09:31:13;;;;;;;29.75;13.65;;;;;;;8.24;100.00;102493.25;5222984;28;20035;-75
2023/04/16 09:34:01;;;;;;;34.80;14.85;;;;;;;8.23;100.00;102493.34;5223119;28;20037;-76
2023/04/16 09:36:33;;;;;;;33.28;12.85;;;;;;;8.26;100.00;102495.81;5222696;28;20028;-76
2023/04/16 09:39:04;;;;;;;33.63;13.55;;;;;;;8.29;100.00;102496.47;5222684;28;20103;-76
2023/04/16 09:41:38;;;;;;;36.42;14.07;;;;;;;8.35;100.00;102500.50;5218155;28;20139;-76
2023/04/16 09:44:08;;;;;;;27.70;13.35;;;;;;;8.38;100.00;102496.78;5212691;28;20021;-76
2023/04/16 09:46:41;;;;;;;36.72;15.77;;;;;;;8.40;100.00;102505.56;5204707;28;20028;-76
2023/04/16 09:49:14;;;;;;;29.65;13.38;;;;;;;8.38;100.00;102502.13;5222706;28;20025;-76
2023/04/16 09:51:51;;;;;;;31.92;13.98;;;;;;;8.34;100.00;102504.16;5204898;28;20029;-75
2023/04/16 09:54:22;;;;;;;24.95;11.85;;;;;;;8.35;100.00;102505.84;5204334;28;20037;-76
2023/04/16 09:56:55;;;;;;;23.00;11.00;;;;;;;8.34;100.00;102514.84;5222299;28;20417;-75
2023/04/16 09:59:30;;;;;;;20.73;10.35;;;;;;;8.43;100.00;102510.66;5222042;28;20506;-76
2023/04/16 10:02:00;;;;;;;24.95;11.05;;;;;;;8.46;100.00;102507.78;5222864;28;20052;-76
2023/04/16 10:04:45;;;;;;;24.45;11.75;;;;;;;8.55;100.00;102517.81;5188157;28;20045;-76
2023/04/16 10:07:16;;;;;;;32.20;13.80;;;;;;;8.54;100.00;102511.59;5222694;28;20033;-76
2023/04/16 10:09:48;;;;;;;37.78;16.13;;;;;;;8.57;100.00;102519.38;5222072;28;20464;-76
2023/04/16 10:12:19;;;;;;;34.83;12.32;;;;;;;8.51;100.00;102517.16;5222339;28;20116;-76
2023/04/16 10:14:50;;;;;;;26.02;12.35;;;;;;;8.48;100.00;102520.09;5222358;28;20032;-76
2023/04/16 10:17:21;;;;;;;26.60;12.30;;;;;;;8.51;100.00;102527.88;5221343;28;20021;-76
2023/04/16 10:19:53;;;;;;;32.90;11.35;;;;;;;8.57;100.00;102519.38;5222020;28;20486;-76
2023/04/16 10:22:25;;;;;;;33.53;12.18;;;;;;;8.59;100.00;102530.00;5222433;28;20013;-76
2023/04/16 10:24:56;;;;;;;28.33;10.82;;;;;;;8.63;100.00;102522.56;5204884;28;20081;-76
2023/04/16 10:27:27;;;;;;;21.30;10.80;;;;;;;8.70;100.00;102523.84;5221764;28;20020;-76
2023/04/16 10:29:59;;;;;;;23.30;11.00;;;;;;;8.74;100.00;102523.50;5221399;28;20021;-76
2023/04/16 10:32:31;;;;;;;22.10;10.30;;;;;;;8.79;100.00;102526.69;5204510;28;20022;-76
2023/04/16 10:35:02;;;;;;;21.38;10.98;;;;;;;8.83;100.00;102532.66;5222056;28;21601;-76
2023/04/16 10:37:33;;;;;;;22.10;10.45;;;;;;;8.91;100.00;102524.94;5222030;28;20032;-76
2023/04/16 10:40:22;;;;;;;24.90;10.65;;;;;;;8.89;100.00;102532.22;5220274;28;20694;-76
2023/04/16 10:42:54;;;;;;;26.10;11.57;;;;;;;8.94;100.00;102530.06;5204905;28;20056;-76
2023/04/16 10:45:29;;;;;;;19.20;10.32;;;;;;;8.99;100.00;102522.53;5230161;28;20020;-76
2023/04/16 10:48:05;;;;;;;19.20;10.20;;;;;;;9.03;100.00;102531.16;5231354;28;20100;-76
2023/04/16 10:50:36;;;;;;;21.17;10.35;;;;;;;9.00;100.00;102528.75;5183979;28;20107;-76
2023/04/16 10:53:21;;;;;;;27.45;10.98;;;;;;;9.05;100.00;102523.91;5229202;28;20017;-76
2023/04/16 10:56:07;;;;;;;24.45;10.73;;;;;;;9.07;100.00;102519.28;5225715;28;20032;-76
2023/04/16 10:58:37;;;;;;;;;;;;;;;9.06;100.00;102523.78;5229891;28;20024;-76
2023/04/16 11:01:29;;;;;;;22.05;9.57;;;;;;;9.11;100.00;102523.44;5222925;28;19916;-76
2023/04/16 11:04:19;;;;;;;18.48;10.32;;;;;;;9.14;100.00;102523.22;5206739;28;20043;-76
2023/04/16 11:07:12;;;;;;;22.95;10.18;;;;;;;9.28;100.00;102522.13;5230028;28;20532;-76
2023/04/16 11:09:45;;;;;;;22.65;10.55;;;;;;;9.23;100.00;102514.44;5238121;28;20090;-76
2023/04/16 11:12:17;;;;;;;20.67;10.75;;;;;;;9.19;100.00;102512.16;5236857;28;20132;-75
2023/04/16 11:14:50;;;;;;;22.08;11.48;;;;;;;9.23;100.00;102524.31;5239081;28;20063;-75
2023/04/16 11:17:21;;;;;;;22.52;10.88;;;;;;;9.20;100.00;102517.38;5216497;28;20062;-75
2023/04/16 11:19:51;;;;;;;23.05;11.93;;;;;;;9.17;100.00;102514.94;5238475;28;20032;-76
2023/04/16 11:22:23;;;;;;;23.60;11.55;;;;;;;9.16;100.00;102520.41;5233702;28;20020;-75
2023/04/16 11:24:55;;;;;;;35.47;13.40;;;;;;;9.24;100.00;102512.66;5230663;28;20155;-76
2023/04/16 11:27:26;;;;;;;26.33;11.77;;;;;;;9.33;100.00;102525.31;5218113;28;20024;-75
2023/04/16 11:29:59;;;;;;;27.88;12.90;;;;;;;9.34;100.00;102519.00;5212724;28;20050;-76
2023/04/16 11:32:48;;;;;;;21.27;13.48;;;;;;;9.39;100.00;102521.31;5231562;28;20112;-75
2023/04/16 11:35:18;;;;;;;42.70;14.80;;;;;;;9.40;100.00;102528.41;5229289;28;20048;-76